createdAt,value
2023-08-19T00:00:59.032Z,59.38
2023-08-19T00:04:12.645Z,59.61
2023-08-19T00:07:16.850Z,59.63
2023-08-19T00:10:19.512Z,59.65
2023-08-19T00:13:22.379Z,59.61
2023-08-19T00:16:25.179Z,59.77
2023-08-19T00:19:27.913Z,59.79
2023-08-19T00:22:30.582Z,59.79
2023-08-19T00:25:34.881Z,59.93
2023-08-19T00:28:37.658Z,59.95
2023-08-19T00:31:41.133Z,59.93
2023-08-19T00:34:44.720Z,60.07
2023-08-19T00:37:47.489Z,60.37
2023-08-19T00:40:50.294Z,60.53
2023-08-19T00:43:53.131Z,60.95
2023-08-19T00:46:56.514Z,61.22
2023-08-19T00:49:59.291Z,61.06
2023-08-19T00:53:02.865Z,60.99
2023-08-19T00:56:05.643Z,61.06
2023-08-19T00:59:08.509Z,61.05
2023-08-19T01:02:11.476Z,61.07
2023-08-19T01:05:14.341Z,61.10
2023-08-19T01:08:27.015Z,61.30
2023-08-19T01:11:55.496Z,61.26
2023-08-19T01:15:13.714Z,61.71
2023-08-19T01:18:18.078Z,62.00
2023-08-19T01:21:22.488Z,62.36
2023-08-19T01:24:27.027Z,62.64
2023-08-19T01:27:30.001Z,62.62
2023-08-19T01:30:35.206Z,62.57
2023-08-19T01:33:38.832Z,62.56
2023-08-19T01:36:45.979Z,62.98
2023-08-19T01:39:50.179Z,62.94
2023-08-19T01:42:54.657Z,62.85
2023-08-19T01:45:57.975Z,62.75
2023-08-19T01:49:00.736Z,63.08
2023-08-19T01:52:03.936Z,62.82
2023-08-19T01:55:07.446Z,62.98
2023-08-19T01:58:10.267Z,62.91
2023-08-19T02:01:14.314Z,63.05
2023-08-19T02:04:18.768Z,63.13
2023-08-19T02:07:21.640Z,63.03
2023-08-19T02:10:24.713Z,63.07
2023-08-19T02:13:27.586Z,63.03
2023-08-19T02:16:30.360Z,63.13
2023-08-19T02:19:33.224Z,63.04
2023-08-19T02:22:36.065Z,63.17
2023-08-19T02:25:38.698Z,63.43
2023-08-19T02:28:41.464Z,63.31
2023-08-19T02:31:45.003Z,63.19
2023-08-19T02:34:48.392Z,63.17
2023-08-19T02:37:51.168Z,63.16
2023-08-19T02:40:54.759Z,63.20
2023-08-19T02:43:57.923Z,63.28
2023-08-19T02:47:00.633Z,63.57
2023-08-19T02:50:03.399Z,63.62
2023-08-19T02:53:06.222Z,63.74
2023-08-19T02:56:08.932Z,63.68
2023-08-19T02:59:12.776Z,63.84
2023-08-19T03:02:15.575Z,63.80
2023-08-19T03:05:18.418Z,63.58
2023-08-19T03:08:21.181Z,63.96
2023-08-19T03:11:23.953Z,64.04
2023-08-19T03:14:26.723Z,64.04
2023-08-19T03:17:29.559Z,63.87
2023-08-19T03:20:32.576Z,63.75
2023-08-19T03:23:35.331Z,63.89
2023-08-19T03:26:38.102Z,63.86
2023-08-19T03:29:40.877Z,64.05
2023-08-19T03:32:43.917Z,64.37
2023-08-19T03:35:47.121Z,64.22
2023-08-19T03:38:49.906Z,64.27
2023-08-19T03:41:52.651Z,64.33
2023-08-19T03:44:55.423Z,64.37
2023-08-19T03:47:58.152Z,64.46
2023-08-19T03:51:00.854Z,64.71
2023-08-19T03:54:03.728Z,64.81
2023-08-19T03:57:06.494Z,64.65
2023-08-19T04:00:11.221Z,64.65
2023-08-19T04:03:14.078Z,64.59
2023-08-19T04:06:16.817Z,64.70
2023-08-19T04:09:19.621Z,64.96
2023-08-19T04:12:25.818Z,65.16
2023-08-19T04:15:31.437Z,65.00
2023-08-19T04:18:35.435Z,65.05
2023-08-19T04:21:38.265Z,64.94
2023-08-19T04:24:41.428Z,65.16
2023-08-19T04:27:44.207Z,65.12
2023-08-19T04:30:46.967Z,65.30
2023-08-19T04:33:49.789Z,65.07
2023-08-19T04:36:52.653Z,64.91
2023-08-19T04:39:55.492Z,64.91
2023-08-19T04:42:58.855Z,64.85
2023-08-19T04:46:01.650Z,64.82
2023-08-19T04:49:04.492Z,65.13
2023-08-19T04:52:07.299Z,64.99
2023-08-19T04:55:10.348Z,64.96
2023-08-19T04:58:13.508Z,64.77
2023-08-19T05:01:16.407Z,64.85
2023-08-19T05:04:20.106Z,64.89
2023-08-19T05:07:23.054Z,64.99
2023-08-19T05:10:26.437Z,64.97
2023-08-19T05:13:29.404Z,64.86
2023-08-19T05:16:32.162Z,64.73
2023-08-19T05:19:37.089Z,64.66
2023-08-19T05:22:39.803Z,64.74
2023-08-19T05:25:42.625Z,64.71
2023-08-19T05:28:45.388Z,64.81
2023-08-19T05:31:48.224Z,65.04
2023-08-19T05:34:53.427Z,64.85
2023-08-19T05:37:57.077Z,64.74
2023-08-19T05:40:59.815Z,64.64
2023-08-19T05:44:02.600Z,64.66
2023-08-19T05:47:05.469Z,64.80
2023-08-19T05:50:11.520Z,64.93
2023-08-19T05:53:14.291Z,65.08
2023-08-19T05:56:17.005Z,64.78
2023-08-19T05:59:19.712Z,64.83
2023-08-19T06:02:22.376Z,64.87
2023-08-19T06:05:25.794Z,64.89
2023-08-19T06:08:28.534Z,65.10
2023-08-19T06:11:31.406Z,65.11
2023-08-19T06:14:34.210Z,65.13
2023-08-19T06:17:37.127Z,65.16
2023-08-19T06:20:40.009Z,65.04
2023-08-19T06:23:42.882Z,65.19
2023-08-19T06:26:45.645Z,65.46
2023-08-19T06:29:48.412Z,65.30
2023-08-19T06:32:51.493Z,65.41
2023-08-19T06:35:57.731Z,65.26
2023-08-19T06:39:07.765Z,65.20
2023-08-19T06:42:11.864Z,65.49
2023-08-19T06:45:16.719Z,65.77
2023-08-19T06:48:19.957Z,65.99
2023-08-19T06:51:23.179Z,65.57
2023-08-19T06:54:26.218Z,65.46
2023-08-19T06:57:30.803Z,65.53
2023-08-19T07:00:35.499Z,65.46
2023-08-19T07:03:38.966Z,65.58
2023-08-19T07:06:43.433Z,65.55
2023-08-19T07:09:46.701Z,65.66
2023-08-19T07:12:49.982Z,65.61
2023-08-19T07:16:00.630Z,65.62
2023-08-19T07:19:10.578Z,65.40
2023-08-19T07:22:13.637Z,65.58
2023-08-19T07:25:17.030Z,65.53
2023-08-19T07:28:23.177Z,65.40
2023-08-19T07:31:26.336Z,65.33
2023-08-19T07:34:30.434Z,65.10
2023-08-19T07:37:34.949Z,65.10
2023-08-19T07:40:37.994Z,65.55
2023-08-19T07:43:40.792Z,65.24
2023-08-19T07:46:43.560Z,64.98
2023-08-19T07:49:46.432Z,64.82
2023-08-19T07:52:49.400Z,64.71
2023-08-19T07:55:52.172Z,64.39
2023-08-19T07:58:55.247Z,64.38
2023-08-19T08:01:58.155Z,64.39
2023-08-19T08:05:02.277Z,64.30
2023-08-19T08:08:05.897Z,64.16
2023-08-19T08:11:08.777Z,63.87
2023-08-19T08:14:11.840Z,63.88
2023-08-19T08:17:14.709Z,63.88
2023-08-19T08:20:17.783Z,63.72
2023-08-19T08:23:20.552Z,63.47
2023-08-19T08:26:24.148Z,63.31
2023-08-19T08:29:27.010Z,62.96
2023-08-19T08:32:29.797Z,62.72
2023-08-19T08:35:33.778Z,62.57
2023-08-19T08:38:36.541Z,62.52
2023-08-19T08:41:41.051Z,62.16
2023-08-19T08:44:48.393Z,62.12
2023-08-19T08:47:53.100Z,61.95
2023-08-19T08:50:57.338Z,61.54
2023-08-19T08:54:02.250Z,61.52
2023-08-19T08:57:20.263Z,61.46
2023-08-19T09:00:23.336Z,61.28
2023-08-19T09:03:37.876Z,60.92
2023-08-19T09:06:43.407Z,60.70
2023-08-19T09:10:04.492Z,60.55
2023-08-19T09:13:10.557Z,60.59
2023-08-19T09:16:13.349Z,60.21
2023-08-19T09:19:16.167Z,60.08
2023-08-19T09:22:18.831Z,60.01
2023-08-19T09:25:21.917Z,60.14
2023-08-19T09:28:24.786Z,59.92
2023-08-19T09:31:27.622Z,60.07
2023-08-19T09:34:30.316Z,60.26
2023-08-19T09:37:35.236Z,59.72
2023-08-19T09:40:40.130Z,59.60
2023-08-19T09:43:43.219Z,59.48
2023-08-19T09:46:47.646Z,58.61
2023-08-19T09:49:54.103Z,57.55
2023-08-19T09:52:58.899Z,56.30
2023-08-19T09:56:02.168Z,54.75
2023-08-19T09:59:05.150Z,53.85
2023-08-19T10:02:12.517Z,53.88
2023-08-19T10:05:17.175Z,53.87
2023-08-19T10:08:24.386Z,53.84
2023-08-19T10:11:30.803Z,53.07
2023-08-19T10:14:34.581Z,52.34
2023-08-19T10:17:41.031Z,50.79
2023-08-19T10:20:47.235Z,50.72
2023-08-19T10:23:50.949Z,50.95
2023-08-19T10:26:53.842Z,51.31
2023-08-19T10:29:58.379Z,51.05
2023-08-19T10:33:29.733Z,49.67
2023-08-19T10:36:34.542Z,50.64
2023-08-19T10:39:38.238Z,50.74
2023-08-19T10:42:41.711Z,51.14
2023-08-19T10:45:49.280Z,51.68
2023-08-19T10:48:52.365Z,52.27
2023-08-19T10:52:02.273Z,52.22
2023-08-19T10:55:06.901Z,52.52
2023-08-19T10:58:10.490Z,51.99
2023-08-19T11:01:13.266Z,51.69
2023-08-19T11:04:16.597Z,51.69
2023-08-19T11:07:20.427Z,51.74
2023-08-19T11:10:23.621Z,51.66
2023-08-19T11:13:26.418Z,51.79
2023-08-19T11:16:29.646Z,51.19
2023-08-19T11:19:32.744Z,51.24
2023-08-19T11:22:46.537Z,51.62
2023-08-19T11:25:49.423Z,51.41
2023-08-19T11:28:52.208Z,51.27
2023-08-19T11:31:55.407Z,50.72
2023-08-19T11:34:58.341Z,50.29
2023-08-19T11:38:03.200Z,50.53
2023-08-19T11:41:05.896Z,50.05
2023-08-19T11:44:08.697Z,50.10
2023-08-19T11:47:13.220Z,49.72
2023-08-19T11:50:16.063Z,49.75
2023-08-19T11:53:37.311Z,48.86
2023-08-19T11:56:53.639Z,48.35
2023-08-19T11:59:58.255Z,48.90
2023-08-19T12:03:02.859Z,48.97
2023-08-19T12:06:05.835Z,48.01
2023-08-19T12:09:08.698Z,47.62
2023-08-19T12:12:12.399Z,47.41
2023-08-19T12:15:15.669Z,47.77
2023-08-19T12:18:18.850Z,47.42
2023-08-19T12:21:21.709Z,47.13
2023-08-19T12:24:24.684Z,45.98
2023-08-19T12:27:27.560Z,46.99
2023-08-19T12:30:30.327Z,47.04
2023-08-19T12:33:33.285Z,47.20
2023-08-19T12:36:36.057Z,47.20
2023-08-19T12:39:38.819Z,46.83
2023-08-19T12:42:48.567Z,46.92
2023-08-19T12:45:52.528Z,46.24
2023-08-19T12:48:55.412Z,46.44
2023-08-19T12:51:58.182Z,46.33
2023-08-19T12:55:01.050Z,45.33
2023-08-19T12:58:05.511Z,45.37
2023-08-19T13:01:08.320Z,45.21
2023-08-19T13:04:13.381Z,44.66
2023-08-19T13:07:16.220Z,44.34
2023-08-19T13:10:19.092Z,44.56
2023-08-19T13:13:21.754Z,44.86
2023-08-19T13:16:24.553Z,44.27
2023-08-19T13:19:27.495Z,43.74
2023-08-19T13:22:30.472Z,41.32
2023-08-19T13:25:34.181Z,39.94
2023-08-19T13:28:37.036Z,38.20
2023-08-19T13:31:39.793Z,37.15
2023-08-19T13:34:43.936Z,35.84
2023-08-19T13:37:46.877Z,35.43
2023-08-19T13:40:49.731Z,34.71
2023-08-19T13:43:52.506Z,34.41
2023-08-19T13:46:57.010Z,34.00
2023-08-19T13:49:59.780Z,34.04
2023-08-19T13:53:02.594Z,33.92
2023-08-19T13:56:05.416Z,34.09
2023-08-19T13:59:08.178Z,34.12
2023-08-19T14:02:10.948Z,33.68
2023-08-19T14:05:16.754Z,33.17
2023-08-19T14:08:19.657Z,32.75
2023-08-19T14:11:22.630Z,32.20
2023-08-19T14:14:26.012Z,32.11
2023-08-19T14:17:29.113Z,31.50
2023-08-19T14:20:32.062Z,30.98
2023-08-19T14:23:35.748Z,30.89
2023-08-19T14:26:38.620Z,30.98
2023-08-19T14:29:41.495Z,30.47
2023-08-19T14:32:44.279Z,30.39
2023-08-19T14:35:48.144Z,29.96
2023-08-19T14:38:50.813Z,30.11
2023-08-19T14:41:53.682Z,30.69
2023-08-19T14:44:56.347Z,30.53
2023-08-19T14:47:59.485Z,30.17
2023-08-19T14:51:03.218Z,29.70
2023-08-19T14:54:06.608Z,29.64
2023-08-19T14:57:09.567Z,29.60
2023-08-19T15:00:13.373Z,29.30
2023-08-19T15:03:16.337Z,29.09
2023-08-19T15:06:19.723Z,29.02
2023-08-19T15:09:23.045Z,29.45
2023-08-19T15:12:26.476Z,29.66
2023-08-19T15:15:29.242Z,29.42
2023-08-19T15:18:31.960Z,29.35
2023-08-19T15:21:34.988Z,29.31
2023-08-19T15:24:37.758Z,29.46
2023-08-19T15:27:44.189Z,29.64
2023-08-19T15:30:47.390Z,29.42
2023-08-19T15:33:50.866Z,29.43
2023-08-19T15:36:53.522Z,29.13
2023-08-19T15:39:56.294Z,29.16
2023-08-19T15:42:59.167Z,29.26
2023-08-19T15:46:02.055Z,29.46
2023-08-19T15:49:04.970Z,30.95
2023-08-19T15:52:07.884Z,31.00
2023-08-19T15:55:10.977Z,31.13
2023-08-19T15:58:14.245Z,31.63
2023-08-19T16:01:17.018Z,31.81
2023-08-19T16:04:19.870Z,32.10
2023-08-19T16:07:34.053Z,31.85
2023-08-19T16:10:37.416Z,32.07
2023-08-19T16:13:40.349Z,32.21
2023-08-19T16:16:43.166Z,32.40
2023-08-19T16:19:46.608Z,32.48
2023-08-19T16:22:49.594Z,32.33
2023-08-19T16:25:53.671Z,32.15
2023-08-19T16:28:56.449Z,31.19
2023-08-19T16:32:00.228Z,31.30
2023-08-19T16:35:02.996Z,31.32
2023-08-19T16:38:05.881Z,31.00
2023-08-19T16:41:10.579Z,31.02
2023-08-19T16:44:13.395Z,30.80
2023-08-19T16:47:16.213Z,30.13
2023-08-19T16:50:18.982Z,30.02
2023-08-19T16:53:22.696Z,30.24
2023-08-19T16:56:25.445Z,30.05
2023-08-19T16:59:29.234Z,30.21
2023-08-19T17:02:35.437Z,29.75
2023-08-19T17:05:38.270Z,29.75
2023-08-19T17:08:41.013Z,30.06
2023-08-19T17:11:45.425Z,30.76
2023-08-19T17:14:48.193Z,31.10
2023-08-19T17:17:51.167Z,31.77
2023-08-19T17:20:55.464Z,32.28
2023-08-19T17:23:58.175Z,32.75
2023-08-19T17:27:00.997Z,33.03
2023-08-19T17:30:04.486Z,33.38
2023-08-19T17:33:07.821Z,33.48
2023-08-19T17:36:10.735Z,33.52
2023-08-19T17:39:15.574Z,33.83
2023-08-19T17:42:19.683Z,34.15
2023-08-19T17:45:22.375Z,34.52
2023-08-19T17:48:26.752Z,34.63
2023-08-19T17:51:29.486Z,34.94
2023-08-19T17:54:32.251Z,35.20
2023-08-19T17:57:35.763Z,35.43
2023-08-19T18:00:41.757Z,35.72
2023-08-19T18:03:52.481Z,36.06
2023-08-19T18:06:55.296Z,36.19
2023-08-19T18:09:58.165Z,36.46
2023-08-19T18:13:00.899Z,36.74
2023-08-19T18:16:04.032Z,37.66
2023-08-19T18:19:06.783Z,38.03
2023-08-19T18:22:09.854Z,37.99
2023-08-19T18:25:12.616Z,38.21
2023-08-19T18:28:15.593Z,38.92
2023-08-19T18:31:18.705Z,39.13
2023-08-19T18:34:21.538Z,38.92
2023-08-19T18:37:24.406Z,38.51
2023-08-19T18:40:29.346Z,38.71
2023-08-19T18:43:32.415Z,38.72
2023-08-19T18:46:35.164Z,38.81
2023-08-19T18:49:37.881Z,39.25
2023-08-19T18:52:40.596Z,40.50
2023-08-19T18:55:43.577Z,40.59
2023-08-19T18:58:47.463Z,40.04
2023-08-19T19:01:50.234Z,39.93
2023-08-19T19:04:53.008Z,39.94
2023-08-19T19:07:59.096Z,40.10
2023-08-19T19:11:01.824Z,41.38
2023-08-19T19:14:04.676Z,42.05
2023-08-19T19:17:07.454Z,42.33
2023-08-19T19:20:10.734Z,42.57
2023-08-19T19:23:13.901Z,42.55
2023-08-19T19:26:16.989Z,42.03
2023-08-19T19:29:20.568Z,41.96
2023-08-19T19:32:23.433Z,42.02
2023-08-19T19:35:26.208Z,42.46
2023-08-19T19:38:29.377Z,42.92
2023-08-19T19:41:32.048Z,44.55
2023-08-19T19:44:34.835Z,44.77
2023-08-19T19:47:39.283Z,44.42
2023-08-19T19:50:42.393Z,44.48
2023-08-19T19:53:45.264Z,44.45
2023-08-19T19:56:49.306Z,44.54
2023-08-19T19:59:52.098Z,44.69
2023-08-19T20:02:55.041Z,44.90
2023-08-19T20:05:58.075Z,45.09
2023-08-19T20:09:01.219Z,44.93
2023-08-19T20:12:04.377Z,45.02
2023-08-19T20:15:07.658Z,45.05
2023-08-19T20:18:11.043Z,44.62
2023-08-19T20:21:13.806Z,45.15
2023-08-19T20:24:16.628Z,45.19
2023-08-19T20:27:19.424Z,45.48
2023-08-19T20:30:24.653Z,45.72
2023-08-19T20:33:27.486Z,45.93
2023-08-19T20:36:34.268Z,46.08
2023-08-19T20:39:37.120Z,46.33
2023-08-19T20:42:42.694Z,46.32
2023-08-19T20:45:52.436Z,46.52
2023-08-19T20:48:55.170Z,46.72
2023-08-19T20:51:58.012Z,46.78
2023-08-19T20:55:00.994Z,46.92
2023-08-19T20:58:03.959Z,46.96
2023-08-19T21:01:06.839Z,47.05
2023-08-19T21:04:12.294Z,47.28
2023-08-19T21:07:17.701Z,47.37
2023-08-19T21:10:20.447Z,47.55
2023-08-19T21:13:23.213Z,47.74
2023-08-19T21:16:25.988Z,47.83
2023-08-19T21:19:31.615Z,47.95
2023-08-19T21:22:34.385Z,48.15
2023-08-19T21:25:37.147Z,48.18
2023-08-19T21:28:39.914Z,48.21
2023-08-19T21:31:42.706Z,48.26
2023-08-19T21:34:45.515Z,48.54
2023-08-19T21:37:49.242Z,49.07
2023-08-19T21:40:56.926Z,49.31
2023-08-19T21:43:59.894Z,49.39
2023-08-19T21:47:02.667Z,49.84
2023-08-19T21:50:06.790Z,49.68
2023-08-19T21:53:09.632Z,50.07
2023-08-19T21:56:12.707Z,50.43
2023-08-19T21:59:15.475Z,50.51
2023-08-19T22:02:18.245Z,50.64
2023-08-19T22:05:21.009Z,50.69
2023-08-19T22:08:24.199Z,50.81
2023-08-19T22:11:27.054Z,51.02
2023-08-19T22:14:29.823Z,51.18
2023-08-19T22:17:32.822Z,51.46
2023-08-19T22:23:41.811Z,51.64
2023-08-19T22:26:44.481Z,51.58
2023-08-19T22:29:47.242Z,51.76
2023-08-19T22:32:50.214Z,51.79
2023-08-19T22:35:53.132Z,51.90
2023-08-19T22:38:55.967Z,52.09
2023-08-19T22:41:58.726Z,52.52
2023-08-19T22:45:01.489Z,52.45
2023-08-19T22:48:04.584Z,51.62
2023-08-19T22:51:07.337Z,51.41
2023-08-19T22:54:10.316Z,51.25
2023-08-19T22:57:13.694Z,51.22
2023-08-19T23:00:18.465Z,51.06
2023-08-19T23:03:21.995Z,50.99
2023-08-19T23:06:24.859Z,51.04
2023-08-19T23:09:27.723Z,51.09
2023-08-19T23:12:30.700Z,50.98
2023-08-19T23:15:33.466Z,51.07
2023-08-19T23:18:37.968Z,51.09
2023-08-19T23:21:46.341Z,51.24
2023-08-19T23:24:50.678Z,51.22
2023-08-19T23:27:53.437Z,51.17
2023-08-19T23:30:56.931Z,51.15
2023-08-19T23:33:59.795Z,51.16
2023-08-19T23:37:02.575Z,51.06
2023-08-19T23:40:06.044Z,51.26
2023-08-19T23:43:09.420Z,51.31
2023-08-19T23:46:12.317Z,51.35
2023-08-19T23:49:15.471Z,51.53
2023-08-19T23:52:21.869Z,51.43
2023-08-19T23:55:25.423Z,51.47
2023-08-19T23:58:28.597Z,51.50
